Time;durP1;ratioP1;P1;durP2;ratioP2;P2;SDS_P1;SDS_P2;PMS_P1;PMS_P2;Temp;Humidity;BMP_temperature;BMP_pressure;BME280_temperature;BME280_humidity;BME280_pressure;Samples;Min_cycle;Max_cycle;Signal;HPM_P1;HPM_P2
2022/01/13 00:00:55;;;;;;;40.45;23.58;;;;;;;-2.40;100.00;101556.31;5030724;28;20037;-75
2022/01/13 00:03:21;;;;;;;40.75;24.42;;;;;;;-2.35;100.00;101562.28;5030667;28;20041;-74
2022/01/13 00:05:46;;;;;;;43.90;26.02;;;;;;;-2.37;100.00;101556.31;5025865;28;20030;-75
2022/01/13 00:08:12;;;;;;;38.65;23.73;;;;;;;-2.37;100.00;101576.97;5030623;28;20486;-76
2022/01/13 00:10:37;;;;;;;39.78;23.38;;;;;;;-2.36;100.00;101589.06;5030049;28;20112;-76
2022/01/13 00:13:07;;;;;;;42.40;23.65;;;;;;;-2.34;100.00;101584.69;5030799;28;20040;-76
2022/01/13 00:15:41;;;;;;;46.67;26.08;;;;;;;-2.37;100.00;101589.91;5029850;28;20042;-75
2022/01/13 00:18:18;;;;;;;42.60;23.50;;;;;;;-2.44;100.00;101598.59;5026975;28;20529;-76
2022/01/13 00:26:06;;;;;;;49.10;26.45;;;;;;;-2.39;100.00;101598.53;5030712;28;20056;-75
2022/01/13 00:28:32;;;;;;;42.75;26.75;;;;;;;-2.40;100.00;101595.09;5030735;28;20044;-75
2022/01/13 00:30:58;;;;;;;44.72;26.73;;;;;;;-2.45;100.00;101583.94;5050711;28;20044;-75
2022/01/13 00:33:25;;;;;;;45.95;27.23;;;;;;;-2.46;100.00;101582.22;5051840;28;20104;-75
2022/01/13 00:35:56;;;;;;;41.78;25.92;;;;;;;-2.44;100.00;101584.78;5051826;28;20040;-76
2022/01/13 00:38:21;;;;;;;;;;;;;;;-2.42;100.00;101583.94;5052416;28;20029;-76
2022/01/13 00:40:47;;;;;;;39.55;23.80;;;;;;;-2.43;100.00;101587.38;5051218;28;19923;-76
2022/01/13 00:43:12;;;;;;;41.70;25.13;;;;;;;-2.44;100.00;101585.66;5051884;28;20104;-76
2022/01/13 00:45:38;;;;;;;50.38;28.00;;;;;;;-2.44;100.00;101585.66;5051251;28;20070;-76
2022/01/13 00:48:04;;;;;;;49.20;26.60;;;;;;;-2.43;100.00;101587.38;5052094;28;20029;-76
2022/01/13 00:50:29;;;;;;;46.55;26.88;;;;;;;-2.47;100.00;101575.31;5051239;28;20018;-76
2022/01/13 00:52:55;;;;;;;50.60;26.63;;;;;;;-2.56;100.00;101585.75;5050459;28;20048;-76
2022/01/13 00:55:22;;;;;;;48.72;27.25;;;;;;;-2.63;100.00;101591.81;5051542;28;20025;-76
2022/01/13 00:57:48;;;;;;;46.47;26.70;;;;;;;-2.66;100.00;101594.44;5051736;28;20041;-76
2022/01/13 01:00:14;;;;;;;48.28;26.67;;;;;;;-2.70;100.00;101597.88;5051685;28;20124;-76
2022/01/13 01:02:40;;;;;;;45.50;26.83;;;;;;;-2.72;100.00;101594.47;5050482;28;20039;-75
2022/01/13 01:05:05;;;;;;;45.67;26.38;;;;;;;-2.70;100.00;101588.41;5051204;28;20529;-76
2022/01/13 01:07:31;;;;;;;44.42;26.48;;;;;;;-2.67;100.00;101592.72;5051127;28;20524;-76
2022/01/13 01:09:58;;;;;;;42.08;26.50;;;;;;;-2.64;100.00;101597.84;5051558;28;20496;-76
2022/01/13 01:12:24;;;;;;;38.42;25.05;;;;;;;-2.70;100.00;101592.72;5051340;28;20367;-76
2022/01/13 01:14:55;;;;;;;47.10;26.27;;;;;;;-2.72;100.00;101605.69;5051515;28;20112;-77
2022/01/13 01:17:21;;;;;;;42.78;26.65;;;;;;;-2.69;100.00;101610.81;5051177;28;20036;-75
2022/01/13 01:19:50;;;;;;;46.42;27.10;;;;;;;-2.70;100.00;101613.38;5051005;28;20032;-76
2022/01/13 01:25:02;;;;;;;49.92;27.75;;;;;;;-2.90;100.00;101611.81;5051216;28;20063;-76
2022/01/13 01:27:36;;;;;;;44.78;25.10;;;;;;;-2.94;100.00;101615.25;5050727;28;20048;-76
2022/01/13 01:30:15;;;;;;;47.88;27.38;;;;;;;-2.99;100.00;101626.47;5047132;28;20442;-76
2022/01/13 01:32:41;;;;;;;44.05;25.92;;;;;;;-3.12;100.00;101630.84;5046423;28;20029;-76
2022/01/13 01:35:14;;;;;;;45.60;27.17;;;;;;;-3.14;100.00;101627.41;5050759;28;20397;-76
2022/01/13 01:37:40;;;;;;;45.53;26.42;;;;;;;-3.23;100.00;101640.34;5050636;28;20044;-75
2022/01/13 01:40:08;;;;;;;42.60;26.98;;;;;;;-3.25;100.00;101641.25;5050936;28;20021;-75
2022/01/13 01:42:33;;;;;;;47.45;26.88;;;;;;;-3.27;100.00;101630.91;5050567;28;20020;-75
2022/01/13 01:45:00;;;;;;;45.05;26.60;;;;;;;-3.26;100.00;101642.97;5050795;28;20037;-75
2022/01/13 01:47:29;;;;;;;50.50;28.70;;;;;;;-3.28;100.00;101638.66;5050390;28;20052;-75
2022/01/13 01:49:58;;;;;;;46.60;28.25;;;;;;;-3.38;100.00;101636.13;5050090;28;20039;-76
2022/01/13 01:52:25;;;;;;;47.80;29.10;;;;;;;-3.48;100.00;101634.44;5048103;28;20029;-75
2022/01/13 01:54:52;;;;;;;51.70;29.10;;;;;;;-3.47;100.00;101643.00;5048385;28;20183;-76
2022/01/13 01:57:19;;;;;;;55.45;30.70;;;;;;;-3.48;100.00;101646.47;5049240;28;20401;-76
2022/01/13 01:59:45;;;;;;;61.88;32.95;;;;;;;-3.49;100.00;101645.63;5050532;28;20547;-75
2022/01/13 02:02:13;;;;;;;53.03;32.15;;;;;;;-3.48;100.00;101646.47;5050759;28;20033;-75
2022/01/13 02:04:39;;;;;;;57.20;32.47;;;;;;;-3.49;100.00;101644.75;5050415;28;20044;-75
2022/01/13 02:07:07;;;;;;;53.97;31.13;;;;;;;-3.46;100.00;101640.44;5050358;28;20037;-76
2022/01/13 02:09:35;;;;;;;51.83;31.20;;;;;;;-3.39;100.00;101646.44;5046591;28;20067;-76
2022/01/13 02:12:06;;;;;;;63.70;33.35;;;;;;;-3.33;100.00;101647.28;5046811;28;20547;-76
2022/01/13 02:14:35;;;;;;;54.10;30.30;;;;;;;-3.35;100.00;101653.28;5048998;28;20048;-76
2022/01/13 02:17:11;;;;;;;54.10;31.15;;;;;;;-3.42;100.00;101642.16;5046753;28;20212;-76
2022/01/13 02:19:40;;;;;;;56.85;30.92;;;;;;;-3.40;100.00;101637.81;5046779;28;20132;-76
2022/01/13 02:22:06;;;;;;;49.67;30.08;;;;;;;-3.37;100.00;101624.94;5049984;28;20389;-76
2022/01/13 02:24:32;;;;;;;58.47;30.95;;;;;;;-3.34;100.00;101630.06;5046064;28;20037;-76
2022/01/13 02:26:57;;;;;;;54.28;30.67;;;;;;;-3.32;100.00;101625.78;5050469;28;20096;-76
2022/01/13 02:29:23;;;;;;;50.63;31.25;;;;;;;-3.28;100.00;101624.03;5049572;28;20028;-75
2022/01/13 02:31:48;;;;;;;52.22;30.02;;;;;;;-3.25;100.00;101624.03;5050148;28;20481;-75
2022/01/13 02:34:14;;;;;;;44.55;28.10;;;;;;;-3.22;100.00;101629.16;5050278;28;20064;-75
2022/01/13 02:36:42;;;;;;;51.05;30.20;;;;;;;-3.20;100.00;101631.75;5049429;28;20520;-75
2022/01/13 02:39:08;;;;;;;51.92;29.85;;;;;;;-3.19;100.00;101634.34;5049952;28;20074;-75
2022/01/13 02:41:33;;;;;;;52.35;28.92;;;;;;;-3.26;100.00;101637.78;5049667;28;20029;-74
2022/01/13 02:43:59;;;;;;;46.45;29.08;;;;;;;-3.27;100.00;101646.41;5049825;28;20393;-76
2022/01/13 02:49:09;;;;;;;48.55;28.13;;;;;;;-3.25;100.00;101639.50;5044788;28;20029;-75
2022/01/13 02:51:36;;;;;;;41.78;26.40;;;;;;;-3.26;100.00;101640.38;5045626;28;20060;-76
2022/01/13 02:54:03;;;;;;;51.88;28.52;;;;;;;-3.34;100.00;101644.69;5045721;28;20390;-75
2022/01/13 02:56:28;;;;;;;51.03;27.80;;;;;;;-3.35;100.00;101642.97;5049291;28;20028;-75
2022/01/13 02:58:54;;;;;;;44.03;27.92;;;;;;;-3.32;100.00;101642.97;5049796;28;20098;-75
2022/01/13 03:01:20;;;;;;;46.28;26.38;;;;;;;-3.28;100.00;101644.66;5049450;28;20356;-75
2022/01/13 03:03:46;;;;;;;48.25;28.80;;;;;;;-3.24;100.00;101651.56;5049594;28;20120;-75
2022/01/13 03:06:15;;;;;;;46.08;27.00;;;;;;;-3.28;100.00;101649.84;5049146;28;20485;-75
2022/01/13 03:08:46;;;;;;;39.17;25.77;;;;;;;-3.35;100.00;101655.88;5051967;28;20120;-75
2022/01/13 03:11:12;;;;;;;46.75;26.90;;;;;;;-3.41;100.00;101655.91;5053699;28;20029;-75
2022/01/13 03:13:38;;;;;;;44.72;27.75;;;;;;;-3.50;100.00;101661.09;5053271;28;20032;-75
2022/01/13 03:16:05;;;;;;;47.72;28.63;;;;;;;-3.62;100.00;101664.56;5053508;28;20481;-75
2022/01/13 03:18:30;;;;;;;42.90;26.38;;;;;;;-3.68;100.00;101664.56;5047684;28;20354;-75
2022/01/13 03:20:56;;;;;;;46.63;27.80;;;;;;;-3.71;100.00;101670.56;5053552;28;20033;-76
2022/01/13 03:23:21;;;;;;;47.03;27.45;;;;;;;-3.73;100.00;101664.59;5053103;28;20025;-76
2022/01/13 03:25:47;;;;;;;47.92;27.52;;;;;;;-3.77;100.00;101651.69;5051942;28;20502;-76
2022/01/13 03:28:28;;;;;;;49.22;28.20;;;;;;;-3.78;100.00;101658.56;5052171;28;20036;-76
2022/01/13 03:30:53;;;;;;;;;;;;;;;-3.78;100.00;101668.88;5053806;28;20037;-75
2022/01/13 03:33:19;;;;;;;42.90;26.65;;;;;;;-3.77;100.00;101665.41;5053131;28;20391;-75
2022/01/13 03:35:45;;;;;;;54.38;29.27;;;;;;;-3.74;100.00;101665.44;5052749;28;20079;-75
2022/01/13 03:38:10;;;;;;;51.28;28.45;;;;;;;-3.73;100.00;101667.16;5053303;28;20159;-75
2022/01/13 03:40:36;;;;;;;49.25;29.35;;;;;;;-3.72;100.00;101663.72;5052821;28;20037;-76
2022/01/13 03:43:03;;;;;;;50.75;27.50;;;;;;;-3.76;100.00;101669.72;5053206;28;20487;-75
2022/01/13 03:45:28;;;;;;;50.13;29.10;;;;;;;-3.78;100.00;101675.78;5052497;28;20409;-76
2022/01/13 03:47:55;;;;;;;46.50;27.83;;;;;;;-3.84;100.00;101666.31;5053022;28;20029;-76
2022/01/13 03:50:20;;;;;;;46.63;27.98;;;;;;;-3.90;100.00;101653.41;5052436;28;20059;-76
2022/01/13 03:53:27;;;;;;;55.33;30.42;;;;;;;-3.94;100.00;101662.00;5051447;28;20025;-75
2022/01/13 03:56:10;;;;;;;51.20;30.05;;;;;;;-3.96;100.00;101663.75;5051431;28;20051;-76
2022/01/13 03:58:53;;;;;;;51.03;28.98;;;;;;;-3.93;100.00;101668.03;5047863;28;20029;-76
2022/01/13 04:01:43;;;;;;;49.63;28.08;;;;;;;-3.89;100.00;101675.78;5052688;28;20057;-76
2022/01/13 04:04:09;;;;;;;51.28;29.98;;;;;;;-3.84;100.00;101679.22;5048382;28;20043;-76
2022/01/13 04:06:34;;;;;;;48.97;30.65;;;;;;;-3.81;100.00;101689.50;5050752;28;20446;-76
2022/01/13 04:08:59;;;;;;;48.40;28.33;;;;;;;-3.81;100.00;101678.34;5051402;28;20448;-75
2022/01/13 04:11:31;;;;;;;50.30;28.55;;;;;;;-3.79;100.00;101672.31;5050799;28;20086;-75
2022/01/13 04:14:01;;;;;;;51.97;28.10;;;;;;;-3.78;100.00;101671.47;5052493;28;20040;-75
2022/01/13 04:16:33;;;;;;;47.85;28.50;;;;;;;-3.78;100.00;101671.47;5052217;28;20037;-75
2022/01/13 04:19:04;;;;;;;44.33;27.80;;;;;;;-3.84;100.00;101670.63;5052093;28;20104;-75
2022/01/13 04:21:35;;;;;;;45.67;27.50;;;;;;;-3.95;100.00;101670.63;5051822;28;20041;-76
2022/01/13 04:24:02;;;;;;;45.80;27.50;;;;;;;-3.99;100.00;101679.19;5052473;28;20108;-76
2022/01/13 04:26:30;;;;;;;45.88;26.88;;;;;;;-3.98;100.00;101680.06;5051909;28;20490;-75
2022/01/13 04:29:18;;;;;;;41.10;26.10;;;;;;;-3.96;100.00;101684.38;5052384;28;20068;-76
2022/01/13 04:31:49;;;;;;;38.83;25.20;;;;;;;-3.99;100.00;101683.50;5049906;28;20059;-75
2022/01/13 04:34:15;;;;;;;40.85;25.33;;;;;;;-4.01;100.00;101690.38;5052202;28;20025;-75
2022/01/13 04:36:41;;;;;;;47.55;25.60;;;;;;;-4.05;100.00;101688.66;5050637;28;20043;-77
2022/01/13 04:39:08;;;;;;;41.60;24.63;;;;;;;-4.06;100.00;101682.63;5052458;28;20112;-76
2022/01/13 04:41:36;;;;;;;40.55;26.05;;;;;;;-4.15;100.00;101687.78;5051559;28;20073;-76
2022/01/13 04:44:05;;;;;;;39.92;25.55;;;;;;;-4.24;100.00;101680.06;5047889;28;20029;-73
2022/01/13 04:46:31;;;;;;;43.00;25.87;;;;;;;-4.25;100.00;101680.91;5047367;28;20275;-75
2022/01/13 04:48:56;;;;;;;44.67;26.92;;;;;;;-4.24;100.00;101672.34;5051948;28;20276;-75
2022/01/13 04:51:22;;;;;;;42.95;25.23;;;;;;;-4.19;100.00;101670.63;5050114;28;20112;-75
2022/01/13 04:53:48;;;;;;;49.15;27.40;;;;;;;-4.21;100.00;101682.63;5051833;28;20036;-75
2022/01/13 04:56:26;;;;;;;44.25;25.55;;;;;;;-4.18;100.00;101677.47;5051715;28;20462;-75
2022/01/13 04:58:52;;;;;;;41.28;25.27;;;;;;;-4.21;100.00;101685.22;5051816;28;20519;-75
2022/01/13 05:01:17;;;;;;;40.13;25.23;;;;;;;-4.34;100.00;101686.03;5051627;28;20032;-76
2022/01/13 05:03:42;;;;;;;42.30;25.67;;;;;;;-4.39;100.00;101677.44;5051474;28;20037;-76
2022/01/13 05:06:08;;;;;;;41.30;26.10;;;;;;;-4.40;100.00;101676.59;5051099;28;20453;-76
2022/01/13 05:08:34;;;;;;;44.45;25.33;;;;;;;-4.37;100.00;101671.47;5051089;28;20033;-76
2022/01/13 05:10:59;;;;;;;41.83;25.02;;;;;;;-4.36;100.00;101680.06;5051429;28;20104;-75
2022/01/13 05:13:25;;;;;;;43.95;24.70;;;;;;;-4.39;100.00;101680.03;5051098;28;20032;-75
2022/01/13 05:15:53;;;;;;;43.40;25.27;;;;;;;-4.57;100.00;101667.97;5051301;28;20234;-76
2022/01/13 05:18:26;;;;;;;42.67;24.35;;;;;;;-4.66;100.00;101668.81;5051123;28;20430;-76
2022/01/13 05:23:43;;;;;;;44.35;26.02;;;;;;;-4.73;100.00;101687.69;5039931;28;20052;-74
2022/01/13 05:26:10;;;;;;;46.15;25.90;;;;;;;-4.69;100.00;101689.41;5051089;28;20029;-74
2022/01/13 05:28:36;;;;;;;44.13;24.73;;;;;;;-4.63;100.00;101689.44;5050829;28;20071;-75
2022/01/13 05:31:02;;;;;;;39.42;24.90;;;;;;;-4.57;100.00;101694.59;5046635;28;20545;-76
2022/01/13 05:33:27;;;;;;;41.50;24.77;;;;;;;-4.59;100.00;101706.59;5050688;28;20117;-75
2022/01/13 05:35:53;;;;;;;42.55;25.00;;;;;;;-4.67;100.00;101699.72;5050666;28;20037;-75
2022/01/13 05:38:19;;;;;;;42.42;25.63;;;;;;;-4.70;100.00;101703.13;5050852;28;20032;-75
2022/01/13 05:40:44;;;;;;;46.33;25.27;;;;;;;-4.77;100.00;101703.97;5050871;28;20036;-77
2022/01/13 05:43:10;;;;;;;47.10;25.35;;;;;;;-4.81;100.00;101709.09;5050955;28;20036;-75
2022/01/13 05:45:36;;;;;;;40.95;24.33;;;;;;;-4.79;100.00;101712.56;5050301;28;20087;-75
2022/01/13 05:48:03;;;;;;;44.20;25.42;;;;;;;-4.73;100.00;101716.03;5046941;28;20120;-75
2022/01/13 05:50:30;;;;;;;46.28;25.00;;;;;;;-4.70;100.00;101710.00;5048993;28;20106;-75
2022/01/13 05:52:56;;;;;;;44.58;25.58;;;;;;;-4.69;100.00;101715.16;5050859;28;20061;-75
2022/01/13 05:55:21;;;;;;;45.03;27.02;;;;;;;-4.68;100.00;101710.88;5050470;28;20079;-75
2022/01/13 05:57:47;;;;;;;51.10;26.05;;;;;;;-4.68;100.00;101716.91;5050406;28;20040;-76
2022/01/13 06:00:16;;;;;;;46.53;26.85;;;;;;;-4.70;100.00;101712.56;5050377;28;20056;-74
2022/01/13 06:02:42;;;;;;;41.60;25.08;;;;;;;-4.73;100.00;101710.88;5050213;28;20120;-74
2022/01/13 06:05:08;;;;;;;47.08;25.52;;;;;;;-4.80;100.00;101706.53;5050519;28;20422;-75
2022/01/13 06:07:34;;;;;;;44.20;26.27;;;;;;;-4.80;100.00;101705.69;5050017;28;20086;-75
2022/01/13 06:10:00;;;;;;;43.83;25.38;;;;;;;-4.77;100.00;101705.72;5050683;28;20108;-75
2022/01/13 06:12:33;;;;;;;44.53;26.85;;;;;;;-4.73;100.00;101707.44;5050197;28;20025;-75
2022/01/13 06:15:00;;;;;;;46.15;27.58;;;;;;;-4.71;100.00;101710.88;5049090;28;20033;-76
2022/01/13 06:17:26;;;;;;;46.72;28.48;;;;;;;-4.73;100.00;101723.75;5050044;28;20048;-76
2022/01/13 06:19:52;;;;;;;44.80;26.52;;;;;;;-4.68;100.00;101721.19;5050063;28;20397;-76
2022/01/13 06:22:17;;;;;;;44.78;27.52;;;;;;;-4.65;100.00;101716.88;5049562;28;20480;-75
2022/01/13 06:24:43;;;;;;;41.17;26.98;;;;;;;-4.64;100.00;101713.47;5049287;28;20160;-74
2022/01/13 06:27:08;;;;;;;44.53;26.80;;;;;;;-4.60;100.00;101730.66;5049583;28;20044;-75
2022/01/13 06:29:33;;;;;;;47.85;27.90;;;;;;;-4.58;100.00;101726.38;5049336;28;20028;-74
2022/01/13 06:32:04;;;;;;;49.22;26.00;;;;;;;-4.58;100.00;101734.09;5049667;28;20052;-72
2022/01/13 06:34:29;;;;;;;46.40;27.80;;;;;;;-4.57;100.00;101733.25;5048624;28;20044;-75
2022/01/13 06:36:55;;;;;;;43.47;27.25;;;;;;;-4.58;100.00;101736.66;5049998;28;20393;-74
2022/01/13 06:39:20;;;;;;;45.42;27.67;;;;;;;-4.69;100.00;101735.78;5049854;28;20112;-75
2022/01/13 06:41:46;;;;;;;43.80;26.48;;;;;;;-4.72;100.00;101740.94;5048114;28;20033;-73
2022/01/13 06:44:12;;;;;;;46.08;27.48;;;;;;;-4.71;100.00;101740.06;5049670;28;20043;-75
2022/01/13 06:46:38;;;;;;;41.83;25.55;;;;;;;-4.67;100.00;101748.66;5049250;28;20079;-74
2022/01/13 06:49:03;;;;;;;44.30;26.75;;;;;;;-4.64;100.00;101743.50;5049486;28;20338;-74
2022/01/13 06:51:29;;;;;;;43.58;24.88;;;;;;;-4.65;100.00;101742.66;5047401;28;20385;-74
2022/01/13 06:53:54;;;;;;;45.95;25.73;;;;;;;-4.64;100.00;101739.22;5049506;28;20060;-73
2022/01/13 06:56:26;;;;;;;48.17;26.38;;;;;;;-4.63;100.00;101751.25;5049242;28;20032;-73
2022/01/13 06:58:54;;;;;;;44.00;25.60;;;;;;;-4.59;100.00;101750.41;5049440;28;20033;-72
2022/01/13 07:01:22;;;;;;;47.83;27.58;;;;;;;-4.55;100.00;101752.16;5049263;28;20037;-72
2022/01/13 07:03:47;;;;;;;55.55;25.92;;;;;;;-4.53;100.00;101746.97;5049898;28;20033;-75
2022/01/13 07:06:13;;;;;;;52.92;27.70;;;;;;;-4.56;100.00;101747.84;5049426;28;20698;-72
2022/01/13 07:08:38;;;;;;;44.03;26.75;;;;;;;-4.61;100.00;101759.84;5048992;28;20478;-73
2022/01/13 07:11:04;;;;;;;45.63;25.90;;;;;;;-4.61;100.00;101775.31;5049142;28;20021;-73
2022/01/13 07:13:30;;;;;;;43.83;25.63;;;;;;;-4.60;100.00;101761.59;5049292;28;20846;-73
2022/01/13 07:15:58;;;;;;;51.75;27.33;;;;;;;-4.62;100.00;101760.72;5049668;28;20045;-73
2022/01/13 07:18:24;;;;;;;44.97;26.95;;;;;;;-4.61;100.00;101772.75;5049339;28;20489;-73
2022/01/13 07:20:49;;;;;;;42.83;25.55;;;;;;;-4.59;100.00;101789.03;5049161;28;20033;-73
2022/01/13 07:23:15;;;;;;;48.85;27.73;;;;;;;-4.61;100.00;101790.78;5049672;28;20032;-72
2022/01/13 07:25:40;;;;;;;45.17;28.02;;;;;;;-4.61;100.00;101790.78;5048811;28;20037;-73
2022/01/13 07:28:06;;;;;;;47.67;27.13;;;;;;;-4.65;100.00;101799.31;5049767;28;20495;-73
2022/01/13 07:30:33;;;;;;;50.95;28.23;;;;;;;-4.65;100.00;101809.63;5045271;28;20473;-73
2022/01/13 07:32:58;;;;;;;46.60;27.20;;;;;;;-4.68;100.00;101819.06;5049252;28;20033;-73
2022/01/13 07:35:24;;;;;;;44.63;26.55;;;;;;;-4.68;100.00;101825.09;5048707;28;20021;-73
2022/01/13 07:37:50;;;;;;;54.65;26.65;;;;;;;-4.67;100.00;101820.78;5049289;28;20078;-73
2022/01/13 07:40:17;;;;;;;47.40;27.27;;;;;;;-4.66;100.00;101815.66;5050109;28;20458;-72
2022/01/13 07:42:44;;;;;;;46.88;26.98;;;;;;;-4.61;100.00;101832.00;5046883;28;20116;-73
2022/01/13 07:45:11;;;;;;;58.20;30.10;;;;;;;-4.51;100.00;101832.88;5049215;28;20116;-73
2022/01/13 07:47:36;;;;;;;51.13;29.40;;;;;;;-4.40;100.00;101825.19;5047961;28;20159;-73
2022/01/13 07:50:05;;;;;;;52.47;27.30;;;;;;;-4.34;100.00;101820.06;5049265;28;20519;-73
2022/01/13 07:52:32;;;;;;;49.70;27.95;;;;;;;-4.36;100.00;101806.34;5048029;28;20539;-71
2022/01/13 07:54:57;;;;;;;45.65;27.15;;;;;;;-4.47;100.00;101793.38;5050245;28;20106;-70
2022/01/13 07:57:23;;;;;;;52.05;29.40;;;;;;;-4.41;100.00;101800.28;5051462;28;20032;-72
2022/01/13 07:59:48;;;;;;;42.17;26.88;;;;;;;-4.30;100.00;101796.88;5051583;28;20445;-68
2022/01/13 08:02:14;;;;;;;47.00;26.88;;;;;;;-4.20;100.00;101798.66;5052134;28;20163;-66
2022/01/13 08:04:39;;;;;;;51.75;27.75;;;;;;;-4.09;100.00;101810.69;5050716;28;20052;-69
2022/01/13 08:07:05;;;;;;;46.47;27.13;;;;;;;-4.00;100.00;101814.16;5051290;28;20457;-69
2022/01/13 08:09:30;;;;;;;52.95;28.30;;;;;;;-3.90;100.00;101828.81;5050632;28;20060;-70
2022/01/13 08:11:56;;;;;;;50.90;29.33;;;;;;;-3.81;100.00;101822.78;5051564;28;20033;-69
2022/01/13 08:14:21;;;;;;;50.15;27.92;;;;;;;-3.73;100.00;101821.97;5051128;28;20078;-70
2022/01/13 08:16:49;;;;;;;42.90;26.27;;;;;;;-3.65;100.00;101819.38;5051469;28;20414;-68
2022/01/13 08:21:58;;;;;;;47.47;26.77;;;;;;;-3.50;100.00;101827.13;5051502;28;20037;-68
2022/01/13 08:24:24;;;;;;;45.38;27.73;;;;;;;-3.44;100.00;101831.44;5051865;28;20047;-70
2022/01/13 08:26:49;;;;;;;45.42;27.75;;;;;;;-3.38;100.00;101834.03;5052282;28;20048;-71
2022/01/13 08:29:14;;;;;;;46.85;28.50;;;;;;;-3.35;100.00;101832.28;5051914;28;20458;-69
2022/01/13 08:31:40;;;;;;;46.75;28.73;;;;;;;-3.30;100.00;101832.31;5051681;28;20036;-69
2022/01/13 08:34:06;;;;;;;44.80;27.02;;;;;;;-3.33;100.00;101816.81;5049211;28;20037;-70
2022/01/13 08:36:31;;;;;;;56.13;29.50;;;;;;;-3.28;100.00;101822.81;5051050;28;20033;-69
2022/01/13 08:38:57;;;;;;;49.40;27.60;;;;;;;-3.22;100.00;101825.41;5051795;28;20095;-70
2022/01/13 08:41:22;;;;;;;40.50;26.63;;;;;;;-3.12;100.00;101836.59;5051933;28;20068;-70
2022/01/13 08:43:51;;;;;;;52.67;29.27;;;;;;;-3.05;100.00;101844.31;5050637;28;20033;-70
2022/01/13 08:46:17;;;;;;;42.97;25.98;;;;;;;-2.96;100.00;101844.31;5051822;28;20045;-70
2022/01/13 08:48:42;;;;;;;46.88;27.75;;;;;;;-2.88;100.00;101847.72;5051651;28;20639;-71
2022/01/13 08:51:08;;;;;;;42.80;26.60;;;;;;;-2.80;100.00;101855.47;5051192;28;20393;-69
2022/01/13 08:53:33;;;;;;;51.35;27.70;;;;;;;-2.74;100.00;101854.59;5050900;28;20048;-73
2022/01/13 08:56:00;;;;;;;51.95;27.65;;;;;;;-2.72;100.00;101848.59;5050980;28;20108;-73
2022/01/13 08:58:25;;;;;;;47.65;27.42;;;;;;;-2.66;100.00;101858.03;5051327;28;20112;-72
2022/01/13 09:00:53;;;;;;;43.42;27.48;;;;;;;-2.61;100.00;101852.00;5050413;28;20302;-71
2022/01/13 09:03:19;;;;;;;45.75;27.73;;;;;;;-2.52;100.00;101856.25;5050368;28;20067;-71
2022/01/13 09:05:45;;;;;;;48.10;28.07;;;;;;;-2.45;100.00;101847.63;5051022;28;20132;-70
2022/01/13 09:08:12;;;;;;;46.50;27.52;;;;;;;-2.40;100.00;101845.88;5050514;28;20273;-71
2022/01/13 09:10:40;;;;;;;45.95;28.15;;;;;;;-2.33;100.00;101855.34;5049774;28;20037;-70
2022/01/13 09:13:11;;;;;;;45.92;28.08;;;;;;;-2.23;100.00;101854.44;5051562;28;20075;-71
2022/01/13 09:15:44;;;;;;;46.53;26.10;;;;;;;-2.15;100.00;101867.34;5045555;28;20043;-70
2022/01/13 09:18:16;;;;;;;44.40;27.75;;;;;;;-2.08;100.00;101869.91;5051722;28;20033;-72
2022/01/13 09:20:43;;;;;;;45.47;28.38;;;;;;;-2.00;100.00;101874.19;5050169;28;20161;-71
2022/01/13 09:23:09;;;;;;;48.92;28.60;;;;;;;-1.91;100.00;101876.72;5049732;28;20065;-72
2022/01/13 09:25:35;;;;;;;44.95;28.35;;;;;;;-1.81;100.00;101886.13;5050299;28;20045;-71
2022/01/13 09:28:04;;;;;;;43.80;26.98;;;;;;;-1.75;100.00;101875.75;5050958;28;20035;-71
2022/01/13 09:30:30;;;;;;;44.08;28.40;;;;;;;-1.68;100.00;101883.47;5049966;28;20040;-70
2022/01/13 09:32:55;;;;;;;46.38;28.25;;;;;;;-1.68;100.00;101885.22;5051141;28;20037;-71
2022/01/13 09:35:21;;;;;;;46.90;27.85;;;;;;;-1.60;100.00;101891.22;5050617;28;20074;-72
2022/01/13 09:37:47;;;;;;;44.63;26.88;;;;;;;-1.52;100.00;101897.19;5050216;28;20152;-72
2022/01/13 09:40:13;;;;;;;49.03;26.60;;;;;;;-1.44;100.00;101899.72;5050597;28;20112;-73
2022/01/13 09:42:40;;;;;;;44.47;26.73;;;;;;;-1.37;100.00;101894.50;5050592;28;20044;-72
2022/01/13 09:45:07;;;;;;;41.33;26.58;;;;;;;-1.28;100.00;101896.16;5050818;28;20029;-72
2022/01/13 09:47:35;;;;;;;41.83;26.63;;;;;;;-1.23;100.00;101895.25;5046577;28;20546;-72
2022/01/13 09:50:01;;;;;;;35.72;24.20;;;;;;;-1.15;100.00;101891.75;5049411;28;20033;-72
2022/01/13 09:52:28;;;;;;;43.10;26.30;;;;;;;-1.06;100.00;101902.06;5049939;28;20032;-73
2022/01/13 09:54:53;;;;;;;40.67;25.42;;;;;;;-1.00;100.00;101905.44;5049052;28;20477;-72
2022/01/13 09:57:19;;;;;;;48.67;26.00;;;;;;;-0.92;100.00;101905.38;5049667;28;20045;-73
2022/01/13 09:59:44;;;;;;;43.30;26.20;;;;;;;-0.84;100.00;101894.06;5051079;28;20083;-73
2022/01/13 10:02:10;;;;;;;40.22;26.63;;;;;;;-0.74;100.00;101896.56;5051161;28;20116;-73
2022/01/13 10:04:48;;;;;;;45.00;26.02;;;;;;;-0.63;100.00;101898.19;5050868;28;20029;-73
2022/01/13 10:07:18;;;;;;;39.38;26.10;;;;;;;-0.54;100.00;101903.28;5048063;28;20029;-71
2022/01/13 10:09:54;;;;;;;43.13;25.90;;;;;;;-0.42;100.00;101904.91;5051201;28;20044;-71
2022/01/13 10:12:32;;;;;;;40.00;23.75;;;;;;;-0.34;99.19;101904.78;5050823;28;20029;-73
2022/01/13 10:17:25;;;;;;;40.88;24.65;;;;;;;-0.20;97.77;101900.31;5047663;28;20044;-74
2022/01/13 10:19:55;;;;;;;40.70;24.63;;;;;;;-0.13;98.20;101899.38;4699574;28;10000493;-74
2022/01/13 10:22:24;;;;;;;;;;;;;;;-0.03;97.77;101890.59;5047926;28;20094;-74
2022/01/13 10:24:53;;;;;;;39.80;23.80;;;;;;;0.05;97.56;101888.75;5048035;28;19920;-74
2022/01/13 10:27:30;;;;;;;36.42;24.48;;;;;;;0.12;97.28;101885.19;5047604;28;20036;-73
2022/01/13 10:29:58;;;;;;;39.00;24.77;;;;;;;0.22;97.22;101886.81;5047970;28;20422;-72
2022/01/13 10:32:36;;;;;;;41.13;23.92;;;;;;;0.31;96.76;101880.59;5048601;28;20036;-73
2022/01/13 10:35:11;;;;;;;43.30;25.17;;;;;;;0.39;96.86;101884.81;5048281;28;20439;-73
2022/01/13 10:37:44;;;;;;;39.47;25.42;;;;;;;0.49;97.38;101879.47;5043737;28;20033;-72
2022/01/13 10:40:15;;;;;;;44.33;25.92;;;;;;;0.54;96.61;101877.66;5046327;28;20051;-74
2022/01/13 10:45:23;;;;;;;43.33;25.00;;;;;;;0.68;96.33;101873.13;5047571;28;20062;-72
2022/01/13 10:47:54;;;;;;;43.90;25.00;;;;;;;0.77;96.47;101867.78;5047376;28;20095;-75
2022/01/13 10:50:21;;;;;;;43.38;24.92;;;;;;;0.89;94.59;101875.38;5044514;28;20421;-74
2022/01/13 10:52:49;;;;;;;41.28;24.70;;;;;;;1.01;94.48;101872.56;5047011;28;20472;-73
2022/01/13 10:55:20;;;;;;;36.63;23.92;;;;;;;1.11;94.37;101871.56;5045747;28;20032;-74
2022/01/13 10:57:47;;;;;;;35.78;23.33;;;;;;;1.22;93.94;101867.00;5047347;28;20036;-74
2022/01/13 11:00:16;;;;;;;35.63;23.40;;;;;;;1.33;93.70;101865.94;5047424;28;20397;-74
2022/01/13 11:02:42;;;;;;;35.53;24.42;;;;;;;1.40;93.80;101868.41;5044273;28;20051;-73
2022/01/13 11:05:10;;;;;;;43.63;26.55;;;;;;;1.50;93.76;101869.97;5046396;28;20052;-74
2022/01/13 11:07:37;;;;;;;40.65;24.85;;;;;;;1.58;93.81;101878.47;5045013;28;20052;-73
2022/01/13 11:10:06;;;;;;;36.85;25.25;;;;;;;1.64;93.94;101867.09;5046162;28;20037;-72
2022/01/13 11:12:43;;;;;;;42.63;25.27;;;;;;;1.69;93.92;101873.06;5046737;28;20041;-73
2022/01/13 11:15:14;;;;;;;39.38;24.88;;;;;;;1.77;93.78;101862.50;5047525;28;20025;-74
2022/01/13 11:17:43;;;;;;;37.45;25.33;;;;;;;1.83;93.46;101860.59;5046374;28;20400;-75
2022/01/13 11:20:11;;;;;;;38.22;24.33;;;;;;;1.88;93.84;101861.41;5042002;28;20045;-74
2022/01/13 11:22:39;;;;;;;36.13;24.07;;;;;;;1.92;94.50;101857.84;4697464;28;10000242;-73
2022/01/13 11:25:07;;;;;;;42.40;24.30;;;;;;;1.99;94.46;101854.22;5045528;28;20686;-73
2022/01/13 11:27:33;;;;;;;40.55;24.42;;;;;;;2.05;94.45;101850.63;5049045;28;20053;-70